Time;durP1;ratioP1;P1;durP2;ratioP2;P2;SDS_P1;SDS_P2;PMS_P1;PMS_P2;Temp;Humidity;BMP_temperature;BMP_pressure;BME280_temperature;BME280_humidity;BME280_pressure;Samples;Min_cycle;Max_cycle;Signal;HPM_P1;HPM_P2
2022/10/06 00:01:08;;;;;;;;;;;;;;;4.11;100.00;96208.97;5060000;28;19963;-73
2022/10/06 00:03:37;;;;;;;;;;;;;;;4.05;100.00;96200.06;5063349;28;20191;-73
2022/10/06 00:06:04;;;;;;;;;;;;;;;3.78;100.00;96211.41;5060696;28;19947;-74
2022/10/06 00:08:32;;;;;;;;;;;;;;;3.85;100.00;96209.00;5064945;28;19928;-73
2022/10/06 00:10:58;;;;;;;;;;;;;;;3.95;100.00;96205.34;5067984;28;19985;-73
2022/10/06 00:13:26;;;;;;;;;;;;;;;4.16;100.00;96211.84;5064789;28;19932;-73
2022/10/06 00:15:53;;;;;;;;;;;;;;;4.34;100.00;96210.00;5062725;28;19940;-73
2022/10/06 00:18:20;;;;;;;;;;;;;;;4.54;100.00;96209.72;5064948;28;20337;-73
2022/10/06 00:20:56;;;;;;;;;;;;;;;4.52;100.00;96209.88;5060481;28;19932;-73
2022/10/06 00:23:23;;;;;;;;;;;;;;;4.38;100.00;96216.44;5062512;28;19924;-73
2022/10/06 00:25:50;;;;;;;;;;;;;;;4.28;100.00;96210.59;5058435;28;19985;-73
2022/10/06 00:28:17;;;;;;;;;;;;;;;4.26;100.00;96207.38;5061491;28;19929;-73
2022/10/06 00:30:44;;;;;;;;;;;;;;;4.11;100.00;96208.97;5057895;28;19925;-73
2022/10/06 00:33:13;;;;;;;;;;;;;;;4.05;100.00;96204.41;5060474;28;20034;-73
2022/10/06 00:35:40;;;;;;;;;;;;;;;3.96;100.00;96204.41;5059082;28;20501;-73
2022/10/06 00:38:09;;;;;;;;;;;;;;;3.95;100.00;96200.19;5059937;28;19947;-74
2022/10/06 00:40:41;;;;;;;;;;;;;;;3.99;100.00;96200.69;5059934;28;20398;-73
2022/10/06 00:43:26;;;;;;;;;;;;;;;3.86;100.00;96195.97;5059690;28;19975;-73
2022/10/06 00:45:53;;;;;;;;;;;;;;;3.64;100.00;96198.13;5056723;28;19964;-73
2022/10/06 00:48:22;;;;;;;;;;;;;;;3.52;100.00;96189.06;5056152;28;19936;-73
2022/10/06 00:50:53;;;;;;;;;;;;;;;3.50;100.00;96196.13;5059992;28;20039;-73
2022/10/06 00:53:20;;;;;;;;;;;;;;;3.30;100.00;96184.44;5055918;28;19939;-73
2022/10/06 00:55:47;;;;;;;;;;;;;;;3.18;100.00;96179.53;5056515;28;19925;-73
2022/10/06 00:58:14;;;;;;;;;;;;;;;3.20;100.00;96179.38;5060386;28;20387;-73
2022/10/06 01:00:43;;;;;;;;;;;;;;;3.12;100.00;96175.00;5061024;28;20058;-73
2022/10/06 01:03:36;;;;;;;;;;;;;;;3.13;100.00;96168.06;5058719;28;19931;-73
2022/10/06 01:06:03;;;;;;;;;;;;;;;3.16;100.00;96168.56;5060100;28;19935;-73
2022/10/06 01:08:31;;;;;;;;;;;;;;;3.21;100.00;96163.78;5090827;27;20022;-73
2022/10/06 01:10:58;;;;;;;;;;;;;;;3.20;100.00;96167.31;5064536;28;19932;-73
2022/10/06 01:13:28;;;;;;;;;;;;;;;3.17;100.00;96154.75;5062714;28;19932;-74
2022/10/06 01:15:58;;;;;;;;;;;;;;;3.13;100.00;96157.78;5064160;28;19947;-73
2022/10/06 01:18:26;;;;;;;;;;;;;;;2.95;100.00;96144.94;5061096;28;19932;-73
2022/10/06 01:21:01;;;;;;;;;;;;;;;3.09;100.00;96153.88;5094453;27;19928;-72
2022/10/06 01:23:29;;;;;;;;;;;;;;;3.22;100.00;96152.53;5061394;28;19928;-73
2022/10/06 01:25:57;;;;;;;;;;;;;;;3.13;100.00;96153.41;5095085;27;19924;-73
2022/10/06 01:28:24;;;;;;;;;;;;;;;3.11;100.00;96159.69;5063588;28;20006;-73
2022/10/06 01:30:54;;;;;;;;;;;;;;;3.25;100.00;96152.22;5062011;28;19928;-73
2022/10/06 01:33:22;;;;;;;;;;;;;;;3.22;100.00;96152.53;5066127;28;19932;-73
2022/10/06 01:35:51;;;;;;;;;;;;;;;3.29;100.00;96154.50;5060949;28;19943;-73
2022/10/06 01:38:18;;;;;;;;;;;;;;;3.04;100.00;96144.03;5063700;28;19991;-73
2022/10/06 01:40:50;;;;;;;;;;;;;;;2.90;100.00;96153.13;5061088;28;19929;-73
2022/10/06 01:43:16;;;;;;;;;;;;;;;2.79;100.00;96155.94;5062326;28;19924;-73
2022/10/06 01:45:43;;;;;;;;;;;;;;;2.70;100.00;96149.91;5061156;28;19939;-73
2022/10/06 01:48:10;;;;;;;;;;;;;;;2.72;100.00;96150.59;5065910;28;19928;-72
2022/10/06 01:50:39;;;;;;;;;;;;;;;2.73;100.00;96147.03;5057412;28;19924;-73
2022/10/06 01:53:06;;;;;;;;;;;;;;;3.01;100.00;96149.50;5065535;28;19929;-73
2022/10/06 01:55:32;;;;;;;;;;;;;;;2.82;100.00;96151.28;5066472;28;19928;-73
2022/10/06 01:58:00;;;;;;;;;;;;;;;2.91;100.00;96141.06;5063519;28;19959;-73
2022/10/06 02:00:27;;;;;;;;;;;;;;;2.78;100.00;96149.19;5063685;28;20039;-72
2022/10/06 02:02:56;;;;;;;;;;;;;;;2.69;100.00;96150.88;5064269;28;19928;-73
2022/10/06 02:05:25;;;;;;;;;;;;;;;2.71;100.00;96148.97;5063393;28;19925;-73
2022/10/06 02:07:52;;;;;;;;;;;;;;;2.78;100.00;96149.97;5062478;28;19967;-73
2022/10/06 02:10:20;;;;;;;;;;;;;;;2.61;100.00;96149.06;5064062;28;19950;-73
2022/10/06 02:12:51;;;;;;;;;;;;;;;2.65;100.00;96157.28;5046944;28;20316;-73
2022/10/06 02:15:20;;;;;;;;;;;;;;;2.67;100.00;96152.81;5063027;28;19963;-73
2022/10/06 02:17:47;;;;;;;;;;;;;;;2.63;100.00;96152.28;5063671;28;19990;-73
2022/10/06 02:20:14;;;;;;;;;;;;;;;2.69;100.00;96150.88;5068825;28;19928;-72
2022/10/06 02:22:42;;;;;;;;;;;;;;;2.77;100.00;96144.97;5062396;28;19929;-73
2022/10/06 02:25:10;;;;;;;;;;;;;;;2.64;100.00;96147.94;5066729;28;20018;-73
2022/10/06 02:27:38;;;;;;;;;;;;;;;2.55;100.00;96153.97;5082222;28;20011;-72
2022/10/06 02:30:06;;;;;;;;;;;;;;;2.60;100.00;96151.78;5068388;28;20332;-74
2022/10/06 02:32:35;;;;;;;;;;;;;;;2.66;100.00;96146.03;5073604;28;19924;-73
2022/10/06 02:35:02;;;;;;;;;;;;;;;2.65;100.00;96152.94;5079228;28;19928;-75
2022/10/06 02:37:29;;;;;;;;;;;;;;;2.75;100.00;96154.63;5071563;28;19939;-74
2022/10/06 02:39:58;;;;;;;;;;;;;;;2.60;100.00;96159.50;5066945;28;19928;-74
2022/10/06 02:42:25;;;;;;;;;;;;;;;2.74;100.00;96158.97;5075582;28;19964;-74
2022/10/06 02:44:52;;;;;;;;;;;;;;;2.65;100.00;96159.88;5061161;28;19931;-73
2022/10/06 02:47:21;;;;;;;;;;;;;;;2.47;100.00;96152.97;5059631;28;19935;-74
2022/10/06 02:49:47;;;;;;;;;;;;;;;2.43;100.00;96156.78;5057224;28;21424;-73
2022/10/06 02:52:15;;;;;;;;;;;;;;;2.60;100.00;96156.91;5064814;28;19928;-74
2022/10/06 02:54:42;;;;;;;;;;;;;;;2.47;100.00;96152.97;5059476;28;20433;-74
2022/10/06 02:57:08;;;;;;;;;;;;;;;2.51;100.00;96160.38;5061856;28;19971;-73
2022/10/06 02:59:35;;;;;;;;;;;;;;;2.58;100.00;96164.78;5065765;28;19928;-74
2022/10/06 03:02:03;;;;;;;;;;;;;;;2.56;100.00;96155.59;5060143;28;19928;-73
2022/10/06 03:04:30;;;;;;;;;;;;;;;2.61;100.00;96153.38;5064824;28;19964;-74
2022/10/06 03:06:56;;;;;;;;;;;;;;;2.49;100.00;96151.03;5075746;28;19925;-73
2022/10/06 03:09:26;;;;;;;;;;;;;;;2.61;100.00;96150.81;5067364;28;20378;-73
2022/10/06 03:11:54;;;;;;;;;;;;;;;2.43;100.00;96156.78;5059638;28;19928;-73
2022/10/06 03:14:29;;;;;;;;;;;;;;;2.51;100.00;96152.66;5067439;28;19936;-72
2022/10/06 03:16:56;;;;;;;;;;;;;;;2.35;100.00;96154.13;5057865;28;20001;-73
2022/10/06 03:19:25;;;;;;;;;;;;;;;2.43;100.00;96151.63;5061910;28;20420;-73
2022/10/06 03:21:52;;;;;;;;;;;;;;;2.40;100.00;96141.66;5054593;28;19939;-73
2022/10/06 03:24:23;;;;;;;;;;;;;;;2.48;100.00;96149.44;5092249;27;19932;-73
2022/10/06 03:26:54;;;;;;;;;;;;;;;2.38;100.00;96153.84;5090137;28;19928;-73
2022/10/06 03:29:21;;;;;;;;;;;;;;;2.44;100.00;96153.25;5063347;28;19957;-74
2022/10/06 03:31:52;;;;;;;;;;;;;;;2.48;100.00;96146.88;5059577;28;19929;-73
2022/10/06 03:34:18;;;;;;;;;;;;;;;2.44;100.00;96148.09;5098998;27;19967;-73
2022/10/06 03:36:45;;;;;;;;;;;;;;;2.38;100.00;96143.56;5060883;28;19931;-73
2022/10/06 03:39:14;;;;;;;;;;;;;;;2.54;100.00;96142.06;5093969;28;20405;-74
2022/10/06 03:41:41;;;;;;;;;;;;;;;2.64;100.00;96142.78;5058829;28;19933;-73
2022/10/06 03:44:08;;;;;;;;;;;;;;;2.79;100.00;96143.88;5059757;28;20680;-73
2022/10/06 03:46:38;;;;;;;;;;;;;;;2.79;100.00;96146.47;5063190;28;19924;-73
2022/10/06 03:49:06;;;;;;;;;;;;;;;2.81;100.00;96139.41;5059021;28;19932;-73
2022/10/06 03:51:36;;;;;;;;;;;;;;;2.76;100.00;96146.75;5063975;28;20027;-73
2022/10/06 03:54:03;;;;;;;;;;;;;;;2.69;100.00;96140.59;5059225;28;19959;-73
2022/10/06 03:56:33;;;;;;;;;;;;;;;2.71;100.00;96136.09;5062931;28;19954;-73
2022/10/06 03:59:01;;;;;;;;;;;;;;;2.76;100.00;96136.47;5087222;27;19936;-73
2022/10/06 04:01:29;;;;;;;;;;;;;;;2.62;100.00;96140.38;5062294;28;19924;-73
2022/10/06 04:03:57;;;;;;;;;;;;;;;2.77;100.00;96135.50;5057771;28;20013;-73
2022/10/06 04:06:24;;;;;;;;;;;;;;;2.72;100.00;96135.16;5064015;28;19942;-74
2022/10/06 04:08:51;;;;;;;;;;;;;;;2.71;100.00;96133.53;5058904;28;20605;-68
2022/10/06 04:11:20;;;;;;;;;;;;;;;2.73;100.00;96139.31;5056254;28;19924;-68
2022/10/06 04:13:47;;;;;;;;;;;;;;;2.68;100.00;96136.38;5060812;28;20174;-68
2022/10/06 04:16:15;;;;;;;;;;;;;;;2.56;100.00;96129.88;5063207;28;19924;-68
2022/10/06 04:18:43;;;;;;;;;;;;;;;2.42;100.00;96137.16;5064610;28;20393;-71
2022/10/06 04:21:11;;;;;;;;;;;;;;;2.42;100.00;96134.59;5062608;28;19928;-71
2022/10/06 04:23:39;;;;;;;;;;;;;;;2.36;100.00;96129.22;5061430;28;19928;-67
2022/10/06 04:26:09;;;;;;;;;;;;;;;2.32;100.00;96128.69;5062538;28;19920;-73
2022/10/06 04:28:37;;;;;;;;;;;;;;;2.32;100.00;96139.00;5061106;28;19942;-73
2022/10/06 04:31:05;;;;;;;;;;;;;;;2.42;100.00;96132.00;5055059;28;20013;-68
2022/10/06 04:33:33;;;;;;;;;;;;;;;2.45;100.00;96134.28;5055923;28;19929;-67
2022/10/06 04:36:02;;;;;;;;;;;;;;;2.53;100.00;96141.25;5083237;28;19956;-71
2022/10/06 04:38:33;;;;;;;;;;;;;;;2.49;100.00;96140.75;5062596;28;19939;-68
2022/10/06 04:41:04;;;;;;;;;;;;;;;2.74;100.00;96138.38;5060345;28;20014;-69
2022/10/06 04:43:33;;;;;;;;;;;;;;;2.81;100.00;96143.72;5058431;28;20786;-69
2022/10/06 04:46:00;;;;;;;;;;;;;;;2.72;100.00;96145.44;5056790;28;20043;-69
2022/10/06 04:48:51;;;;;;;;;;;;;;;2.71;100.00;96148.97;5084675;28;20040;-69
2022/10/06 04:51:19;;;;;;;;;;;;;;;2.83;100.00;96145.19;5062236;28;20020;-69
2022/10/06 04:53:47;;;;;;;;;;;;;;;3.17;100.00;96149.59;5059026;28;19936;-68
2022/10/06 04:56:16;;;;;;;;;;;;;;;3.38;100.00;96148.41;5049939;28;20019;-68
2022/10/06 04:58:44;;;;;;;;;;;;;;;3.45;100.00;96162.28;5061594;28;19971;-69
2022/10/06 05:01:21;;;;;;;;;;;;;;;3.56;100.00;96154.28;5062153;28;19982;-67
2022/10/06 05:03:49;;;;;;;;;;;;;;;3.55;100.00;96157.84;5057758;28;20133;-67
2022/10/06 05:06:35;;;;;;;;;;;;;;;3.60;100.00;96165.91;5065716;28;19928;-67
2022/10/06 05:09:10;;;;;;;;;;;;;;;3.68;100.00;96166.91;5064158;28;19925;-66
2022/10/06 05:11:39;;;;;;;;;;;;;;;3.78;100.00;96172.75;5064356;28;20316;-66
2022/10/06 05:14:09;;;;;;;;;;;;;;;3.66;100.00;96169.66;5060709;28;19939;-67
2022/10/06 05:16:39;;;;;;;;;;;;;;;3.60;100.00;96165.91;5061239;28;20250;-66
2022/10/06 05:19:07;;;;;;;;;;;;;;;3.73;100.00;96169.84;5060219;28;19924;-67
2022/10/06 05:21:36;;;;;;;;;;;;;;;3.70;100.00;96165.00;5069348;28;19933;-66
2022/10/06 05:24:04;;;;;;;;;;;;;;;3.71;100.00;96166.59;5064936;28;19924;-69
2022/10/06 05:26:33;;;;;;;;;;;;;;;3.81;100.00;96175.00;5067617;28;20024;-70
2022/10/06 05:29:01;;;;;;;;;;;;;;;4.00;100.00;96177.34;5063565;28;20057;-70
2022/10/06 05:31:30;;;;;;;;;;;;;;;4.14;100.00;96172.53;5063979;28;19935;-71
2022/10/06 05:33:59;;;;;;;;;;;;;;;4.37;100.00;96172.75;5063268;28;20030;-71
2022/10/06 05:36:31;;;;;;;;;;;;;;;4.43;100.00;96176.47;5060845;28;19936;-70
2022/10/06 05:38:59;;;;;;;;;;;;;;;4.57;100.00;96173.25;5096174;28;19927;-70
2022/10/06 05:41:31;;;;;;;;;;;;;;;4.77;100.00;96177.16;5070395;28;19933;-71
2022/10/06 05:44:00;;;;;;;;;;;;;;;4.64;100.00;96171.66;5074773;28;19935;-69
2022/10/06 05:46:29;;;;;;;;;;;;;;;4.79;100.00;96180.38;5077036;28;19928;-68
2022/10/06 05:48:57;;;;;;;;;;;;;;;4.89;100.00;96181.97;5072803;28;19928;-67
2022/10/06 05:51:29;;;;;;;;;;;;;;;5.12;100.00;96177.75;5094455;28;20342;-67
2022/10/06 05:53:59;;;;;;;;;;;;;;;5.29;100.00;96182.91;5090250;28;19928;-70
2022/10/06 05:56:28;;;;;;;;;;;;;;;5.51;100.00;96182.22;5071825;28;19928;-69
2022/10/06 05:58:56;;;;;;;;;;;;;;;5.61;100.00;96186.38;5073077;28;19932;-67
2022/10/06 06:01:26;;;;;;;;;;;;;;;5.74;100.00;96184.06;5078903;28;19946;-67
2022/10/06 06:03:58;;;;;;;;;;;;;;;5.74;100.00;96186.66;5114110;27;19924;-69
2022/10/06 06:06:27;;;;;;;;;;;;;;;5.86;100.00;96185.31;5074886;28;19931;-69
2022/10/06 06:08:59;;;;;;;;;;;;;;;6.22;100.00;96197.81;5080801;28;19928;-68
2022/10/06 06:11:27;;;;;;;;;;;;;;;6.18;100.00;96188.78;5076012;28;19924;-68
2022/10/06 06:13:56;;;;;;;;;;;;;;;6.32;100.00;96190.63;5069672;28;19934;-67
2022/10/06 06:16:23;;;;;;;;;;;;;;;6.44;100.00;96192.81;5074523;28;19933;-69
2022/10/06 06:18:50;;;;;;;;;;;;;;;6.52;100.00;96185.03;5072196;28;20546;-69
2022/10/06 06:21:17;;;;;;;;;;;;;;;6.56;100.00;96190.66;5074980;28;19936;-69
2022/10/06 06:23:45;;;;;;;;;;;;;;;6.77;100.00;96197.78;5065987;28;19928;-68
2022/10/06 06:26:22;;;;;;;;;;;;;;;6.95;100.00;96198.31;5067136;28;19935;-68
2022/10/06 06:28:50;;;;;;;;;;;;;;;7.14;100.00;96206.56;5059066;28;19932;-69
2022/10/06 06:31:25;;;;;;;;;;;;;;;7.20;100.00;96208.44;5065573;28;19929;-68
2022/10/06 06:33:55;;;;;;;;;;;;;;;7.28;100.00;96200.63;5058153;28;19924;-68
2022/10/06 06:36:26;;;;;;;;;;;;;;;7.26;100.00;96202.59;5065680;28;20019;-69
2022/10/06 06:38:54;;;;;;;;;;;;;;;7.41;100.00;96211.16;5059170;28;19925;-69
2022/10/06 06:41:22;;;;;;;;;;;;;;;7.65;100.00;96201.53;5089881;28;19934;-68
2022/10/06 06:43:55;;;;;;;;;;;;;;;7.77;100.00;96194.91;5066856;28;20035;-67
2022/10/06 06:46:30;;;;;;;;;;;;;;;7.88;100.00;96196.25;5067985;28;19935;-67
2022/10/06 06:49:05;;;;;;;;;;;;;;;7.99;100.00;96195.00;5061951;28;19959;-67
2022/10/06 06:51:48;;;;;;;;;;;;;;;8.14;100.00;96193.19;5088576;27;19928;-68
2022/10/06 06:54:17;;;;;;;;;;;;;;;8.37;100.00;96190.47;5059204;28;19929;-69
2022/10/06 06:56:47;;;;;;;;;;;;;;;8.44;100.00;96195.72;5060590;28;20011;-74
2022/10/06 06:59:19;;;;;;;;;;;;;;;8.42;100.00;96187.31;5064414;28;20006;-73
2022/10/06 07:01:48;;;;;;;;;;;;;;;8.63;100.00;96194.34;5059116;28;19935;-72
2022/10/06 07:07:11;;;;;;;;;;;;;;;8.47;100.00;96185.00;5082954;27;19927;-68
2022/10/06 07:09:37;;;;;;;;;;;;;;;8.87;100.00;96185.38;5083481;28;19934;-72
2022/10/06 07:12:10;;;;;;;;;;;;;;;9.26;100.00;96184.09;5093017;28;19968;-72
2022/10/06 07:25:05;;;;;;;;;;;;;;;9.36;100.00;96184.56;5081199;28;19932;-72
2022/10/06 07:25:48;;;;;;;;;;;;;;;9.50;100.00;96171.63;5097132;28;19924;-72
2022/10/06 07:28:15;;;;;;;;;;;;;;;9.86;100.00;96163.63;5093555;28;20017;-72
2022/10/06 07:30:43;;;;;;;;;;;;;;;10.09;100.00;96168.53;5079017;28;19936;-72
2022/10/06 07:33:14;;;;;;;;;;;;;;;10.30;100.00;96175.41;5080933;28;19935;-71
2022/10/06 07:35:42;;;;;;;;;;;;;;;10.32;100.00;96177.84;5078568;28;19932;-71
2022/10/06 07:38:10;;;;;;;;;;;;;;;10.43;100.00;96174.66;5102704;27;20437;-70
2022/10/06 07:40:44;;;;;;;;;;;;;;;10.77;100.00;96178.16;5076713;28;19928;-72
2022/10/06 07:43:16;;;;;;;;;;;;;;;10.96;100.00;96180.97;5076133;28;19928;-70
2022/10/06 07:48:59;;;;;;;;;;;;;;;10.83;100.00;96179.94;5070885;27;20520;-71
2022/10/06 07:51:26;;;;;;;;;;;;;;;11.03;100.00;96189.59;5095109;28;20483;-71
2022/10/06 07:53:55;;;;;;;;;;;;;;;11.18;100.00;96179.78;5079682;28;19986;-70
2022/10/06 07:56:26;;;;;;;;;;;;;;;11.32;100.00;96182.38;5083160;28;19934;-71
2022/10/06 07:58:57;;;;;;;;;;;;;;;11.49;100.00;96183.56;5081709;28;19937;-69
2022/10/06 08:01:26;;;;;;;;;;;;;;;11.62;100.00;96172.28;5082791;28;20492;-69
2022/10/06 08:03:53;;;;;;;;;;;;;;;11.55;100.00;96177.50;5078911;28;19985;-71
2022/10/06 08:06:22;;;;;;;;;;;;;;;11.52;100.00;96185.75;5082970;28;19932;-70
2022/10/06 08:08:51;;;;;;;;;;;;;;;11.74;100.00;96182.88;5091102;28;19966;-69
2022/10/06 08:11:20;;;;;;;;;;;;;;;11.93;100.00;96187.28;5092123;28;19932;-70
2022/10/06 08:13:47;;;;;;;;;;;;;;;11.89;100.00;96178.25;5081085;28;19932;-69
2022/10/06 08:16:16;;;;;;;;;;;;;;;11.69;100.00;96180.13;5080530;28;19928;-69
2022/10/06 08:18:47;;;;;;;;;;;;;;;11.60;100.00;96177.72;5078975;28;19951;-68
2022/10/06 08:21:15;;;;;;;;;;;;;;;11.96;100.00;96176.44;5075004;28;20600;-68
2022/10/06 08:23:42;;;;;;;;;;;;;;;12.51;100.00;96175.19;5077491;28;20011;-68
2022/10/06 08:26:09;;;;;;;;;;;;;;;12.60;100.00;96176.53;5077388;28;19933;-68
2022/10/06 08:28:36;;;;;;;;;;;;;;;12.42;100.00;96167.63;5079967;28;19985;-67
2022/10/06 08:31:10;;;;;;;;;;;;;;;12.70;100.00;96157.78;5076115;28;19920;-73
2022/10/06 08:33:38;;;;;;;;;;;;;;;12.56;100.00;96157.06;5079513;28;19928;-72
2022/10/06 08:36:07;;;;;;;;;;;;;;;13.10;100.00;96155.66;5080839;28;20031;-75
2022/10/06 08:38:35;;;;;;;;;;;;;;;13.31;100.00;96164.19;5085312;28;20652;-75
2022/10/06 08:41:15;;;;;;;;;;;;;;;13.51;100.00;96164.81;5111983;27;19947;-74
2022/10/06 08:43:42;;;;;;;;;;;;;;;13.51;100.00;96159.56;5079401;28;20014;-69
2022/10/06 08:46:13;;;;;;;;;;;;;;;13.78;100.00;96159.28;5078690;28;20045;-67
2022/10/06 08:48:40;;;;;;;;;;;;;;;13.90;100.00;96160.16;5078803;28;20296;-73
2022/10/06 08:51:22;;;;;;;;;;;;;;;13.70;100.00;96162.19;5083411;28;19955;-73
2022/10/06 08:54:04;;;;;;;;;;;;;;;14.16;100.00;96163.50;5080246;28;19940;-73
2022/10/06 08:56:34;;;;;;;;;;;;;;;14.05;100.00;96166.84;5082156;28;20581;-73
2022/10/06 08:59:03;;;;;;;;;;;;;;;13.57;100.00;96161.31;5083953;28;20748;-73
2022/10/06 09:01:37;;;;;;;;;;;;;;;13.88;100.00;96164.84;5080692;28;19928;-71
2022/10/06 09:04:06;;;;;;;;;;;;;;;13.87;100.00;96160.59;5063887;28;19955;-68
2022/10/06 09:06:51;;;;;;;;;;;;;;;14.16;100.00;96160.88;5065555;28;19925;-68
2022/10/06 09:09:24;;;;;;;;;;;;;;;14.52;100.00;96164.44;5064530;28;19928;-68
2022/10/06 09:11:57;;;;;;;;;;;;;;;14.56;90.02;96160.34;5068586;28;19962;-68
2022/10/06 09:14:29;;;;;;;;;;;;;;;14.52;87.54;96159.19;5094613;27;19924;-68
2022/10/06 09:17:00;;;;;;;;;;;;;;;15.10;88.53;96150.69;5066391;28;20577;-69
2022/10/06 09:19:36;;;;;;;;;;;;;;;15.54;85.83;96149.53;5063291;28;20044;-69
2022/10/06 09:22:04;;;;;;;;;;;;;;;15.02;86.38;96153.66;5065630;28;20003;-69
2022/10/06 09:24:36;;;;;;;;;;;;;;;15.12;83.25;96152.28;5063132;28;19954;-69
2022/10/06 09:27:15;;;;;;;;;;;;;;;15.36;81.70;96143.41;5057114;28;20007;-69
2022/10/06 09:29:42;;;;;;;;;;;;;;;15.51;80.61;96147.41;5060466;28;20702;-69
2022/10/06 09:32:09;;;;;;;;;;;;;;;15.32;77.64;96147.50;5062212;28;19994;-69
2022/10/06 09:34:39;;;;;;;;;;;;;;;15.60;78.06;96140.75;5061295;28;19928;-69
2022/10/06 09:37:11;;;;;;;;;;;;;;;15.96;79.76;96136.28;5064002;28;19986;-68
2022/10/06 09:39:47;;;;;;;;;;;;;;;15.91;79.06;96138.78;5064729;28;19974;-69
2022/10/06 09:42:18;;;;;;;;;;;;;;;16.44;76.08;96137.72;5064179;28;20705;-69
2022/10/06 09:44:49;;;;;;;;;;;;;;;16.63;75.07;96141.72;5062659;28;19954;-69
2022/10/06 09:47:35;;;;;;;;;;;;;;;16.57;73.60;96137.41;5066718;28;19931;-69
2022/10/06 09:50:10;;;;;;;;;;;;;;;16.81;71.86;96134.63;5059352;28;19955;-69
2022/10/06 09:52:38;;;;;;;;;;;;;;;16.69;66.94;96133.91;5061849;28;19931;-69
2022/10/06 09:55:11;;;;;;;;;;;;;;;16.56;66.43;96125.28;5065084;28;20640;-69
2022/10/06 09:57:38;;;;;;;;;;;;;;;16.84;66.54;96126.31;5059456;28;19947;-68
2022/10/06 10:00:25;;;;;;;;;;;;;;;17.63;63.63;96127.16;5063974;28;20688;-69
2022/10/06 10:03:06;;;;;;;;;;;;;;;17.50;63.81;96123.06;5063112;28;20437;-67
2022/10/06 10:05:35;;;;;;;;;;;;;;;17.37;62.37;96121.56;5068323;28;19929;-70
2022/10/06 10:08:01;;;;;;;;;;;;;;;16.54;63.00;96122.09;5064881;28;20011;-69
2022/10/06 10:10:28;;;;;;;;;;;;;;;16.77;61.66;96120.38;5064022;28;19928;-69
2022/10/06 10:12:58;;;;;;;;;;;;;;;17.07;61.98;96116.66;5062738;28;19932;-68
2022/10/06 10:15:48;;;;;;;;;;;;;;;17.17;58.96;96114.19;5088679;27;19935;-67
2022/10/06 10:18:15;;;;;;;;;;;;;;;17.53;57.55;96122.56;5068094;28;19982;-67
2022/10/06 10:21:04;;;;;;;;;;;;;;;17.72;57.04;96109.94;5067252;28;19986;-67
2022/10/06 10:23:31;;;;;;;;;;;;;;;18.05;55.24;96113.50;5064378;28;21336;-68
2022/10/06 10:26:07;;;;;;;;;;;;;;;17.77;59.85;96100.25;5068339;28;19932;-68
2022/10/06 10:28:41;;;;;;;;;;;;;;;17.94;56.90;96109.94;5061267;28;19933;-68
2022/10/06 10:31:08;;;;;;;;;;;;;;;18.60;57.27;96111.66;5066574;28;19956;-68
2022/10/06 10:33:41;;;;;;;;;;;;;;;18.56;56.08;96107.94;5065275;28;19928;-67
2022/10/06 10:36:32;;;;;;;;;;;;;;;18.66;54.25;96102.75;5084710;27;19932;-67
2022/10/06 10:39:00;;;;;;;;;;;;;;;18.75;52.89;96095.97;5064253;28;19924;-68
2022/10/06 10:41:31;;;;;;;;;;;;;;;18.40;54.22;96099.91;5065546;28;19928;-68
2022/10/06 10:44:08;;;;;;;;;;;;;;;18.33;54.43;96088.75;5064950;28;19993;-67
2022/10/06 10:46:41;;;;;;;;;;;;;;;18.38;54.62;96091.41;5067480;28;19932;-68
2022/10/06 10:49:12;;;;;;;;;;;;;;;18.65;54.43;96082.69;5059323;28;19929;-67
2022/10/06 10:51:41;;;;;;;;;;;;;;;18.82;52.57;96080.75;5060385;28;19960;-67
2022/10/06 10:54:20;;;;;;;;;;;;;;;19.81;51.62;96075.00;5064497;28;19936;-68
2022/10/06 10:56:48;;;;;;;;;;;;;;;20.54;49.98;96076.75;5068045;28;19932;-68
2022/10/06 10:59:24;;;;;;;;;;;;;;;20.69;48.41;96078.63;5060330;28;20366;-68
2022/10/06 11:01:51;;;;;;;;;;;;;;;20.52;48.76;96073.56;5059978;28;20501;-68
2022/10/06 11:04:19;;;;;;;;;;;;;;;19.92;47.38;96074.00;5061231;28;20460;-68
2022/10/06 11:07:00;;;;;;;;;;;;;;;19.32;49.10;96072.63;5060929;28;20198;-68
2022/10/06 11:09:46;;;;;;;;;;;;;;;19.73;48.03;96064.91;5060118;28;19929;-67
2022/10/06 11:12:32;;;;;;;;;;;;;;;19.79;47.57;96061.22;5060613;28;20043;-68
2022/10/06 11:15:02;;;;;;;;;;;;;;;20.42;47.24;96056.63;5063664;28;20002;-68
2022/10/06 11:17:44;;;;;;;;;;;;;;;19.92;47.28;96060.78;5060456;28;19928;-67
2022/10/06 11:20:26;;;;;;;;;;;;;;;20.10;46.18;96050.78;5066597;28;20237;-67
2022/10/06 11:22:55;;;;;;;;;;;;;;;21.08;44.44;96049.75;5058138;28;19964;-67
2022/10/06 11:25:35;;;;;;;;;;;;;;;20.91;42.35;96054.56;5063345;28;19930;-67
2022/10/06 11:28:04;;;;;;;;;;;;;;;20.24;43.50;96052.66;5058747;28;20021;-67
2022/10/06 11:30:35;;;;;;;;;;;;;;;20.60;43.03;96049.25;5060239;28;19933;-66
2022/10/06 11:33:22;;;;;;;;;;;;;;;21.07;42.81;96037.56;5058996;28;19920;-67
2022/10/06 11:35:50;;;;;;;;;;;;;;;21.68;41.73;96041.13;5060940;28;20319;-67
2022/10/06 11:38:34;;;;;;;;;;;;;;;22.62;43.03;96033.16;5060402;28;19934;-67
2022/10/06 11:41:16;;;;;;;;;;;;;;;23.54;38.52;96030.69;5064037;28;20043;-67
2022/10/06 11:43:50;;;;;;;;;;;;;;;22.04;39.45;96022.38;5058251;28;19986;-66
2022/10/06 11:46:33;;;;;;;;;;;;;;;21.27;43.27;96020.06;5061810;28;19928;-67
2022/10/06 11:49:20;;;;;;;;;;;;;;;21.67;41.82;96018.34;5056504;28;19932;-67
2022/10/06 11:51:46;;;;;;;;;;;;;;;21.62;40.55;96021.00;5061831;28;19978;-67
2022/10/06 11:54:31;;;;;;;;;;;;;;;21.75;39.81;96023.06;5058754;28;19932;-66
2022/10/06 11:56:58;;;;;;;;;;;;;;;21.26;40.38;96002.56;5063774;28;19928;-67
2022/10/06 11:59:26;;;;;;;;;;;;;;;21.99;39.39;96003.84;5058769;28;20597;-66
2022/10/06 12:01:56;;;;;;;;;;;;;;;22.20;38.48;96010.63;5061789;28;20751;-67
2022/10/06 12:04:26;;;;;;;;;;;;;;;22.18;39.17;96004.78;5060788;28;19932;-67
2022/10/06 12:06:54;;;;;;;;;;;;;;;22.62;36.02;96006.59;5061377;28;19924;-67
2022/10/06 12:09:27;;;;;;;;;;;;;;;23.13;36.73;96013.31;5059274;28;20053;-67
2022/10/06 12:11:55;;;;;;;;;;;;;;;22.71;37.28;96002.25;5060983;28;20316;-67
2022/10/06 12:14:24;;;;;;;;;;;;;;;23.18;34.79;95999.19;5058344;28;20411;-68
2022/10/06 12:17:22;;;;;;;;;;;;;;;23.22;35.54;95994.88;5058918;28;20038;-71
2022/10/06 12:19:52;;;;;;;;;;;;;;;22.44;36.96;95988.72;5055821;28;19931;-72
2022/10/06 12:22:29;;;;;;;;;;;;;;;22.37;38.20;95988.22;5061697;28;19932;-69
2022/10/06 12:25:01;;;;;;;;;;;;;;;22.85;37.94;95983.81;5058358;28;19932;-69
2022/10/06 12:27:46;;;;;;;;;;;;;;;23.64;36.54;95977.34;5060415;28;19932;-69
2022/10/06 12:30:26;;;;;;;;;;;;;;;24.01;34.35;95981.16;5060872;28;19928;-69
2022/10/06 12:32:54;;;;;;;;;;;;;;;24.08;34.92;95981.56;5062996;28;19963;-69
2022/10/06 12:35:23;;;;;;;;;;;;;;;23.89;33.38;95975.47;5062922;28;20031;-68
2022/10/06 12:37:51;;;;;;;;;;;;;;;24.57;33.38;95982.94;5063914;28;19936;-69
2022/10/06 12:40:45;;;;;;;;;;;;;;;24.61;32.76;95983.97;5066198;28;19933;-68
2022/10/06 12:43:16;;;;;;;;;;;;;;;24.95;31.09;95977.50;5065450;28;19935;-68
2022/10/06 12:45:45;;;;;;;;;;;;;;;25.20;31.55;95972.78;5068358;28;19925;-69
2022/10/06 12:48:35;;;;;;;;;;;;;;;24.95;31.92;95974.81;5060706;28;19931;-68
2022/10/06 12:51:05;;;;;;;;;;;;;;;24.70;32.35;95969.97;5044229;28;19925;-68
2022/10/06 12:53:38;;;;;;;;;;;;;;;25.37;31.44;95967.66;5064083;28;19929;-69
2022/10/06 12:56:10;;;;;;;;;;;;;;;26.10;29.85;95970.38;5072329;28;19927;-69
2022/10/06 12:58:38;;;;;;;;;;;;;;;25.19;30.22;95961.34;5062163;28;19929;-69
2022/10/06 13:01:08;;;;;;;;;;;;;;;24.75;31.01;95957.34;5067584;28;19932;-69
2022/10/06 13:03:35;;;;;;;;;;;;;;;23.94;32.60;95954.13;5066893;28;20331;-69
2022/10/06 13:06:06;;;;;;;;;;;;;;;23.80;32.19;95960.13;5068082;28;19929;-68
2022/10/06 13:08:37;;;;;;;;;;;;;;;24.00;31.93;95947.63;5065052;28;20632;-68
2022/10/06 13:11:21;;;;;;;;;;;;;;;24.39;31.29;95954.47;5069080;28;19970;-69
2022/10/06 13:13:48;;;;;;;;;;;;;;;24.49;30.87;95953.50;5065156;28;19929;-68
2022/10/06 13:16:20;;;;;;;;;;;;;;;25.27;30.04;95954.53;5066993;28;19928;-69
2022/10/06 13:18:48;;;;;;;;;;;;;;;25.85;27.85;95952.25;5065661;28;19924;-68